Time;durP1;ratioP1;P1;durP2;ratioP2;P2;SDS_P1;SDS_P2;PMS_P1;PMS_P2;Temp;Humidity;BMP_temperature;BMP_pressure;BME280_temperature;BME280_humidity;BME280_pressure;Samples;Min_cycle;Max_cycle;Signal;HPM_P1;HPM_P2
2022/01/30 00:01:04;;;;;;;22.15;9.95;;;1.00;99.90;;;;;;5030355;28;20079;-79
2022/01/30 00:03:29;;;;;;;24.13;9.73;;;1.00;99.90;;;;;;5033583;28;20026;-79
2022/01/30 00:05:55;;;;;;;22.00;9.43;;;1.00;99.90;;;;;;5029557;28;20032;-79
2022/01/30 00:08:21;;;;;;;25.67;10.55;;;0.90;99.90;;;;;;5028529;28;20452;-79
2022/01/30 00:10:52;;;;;;;20.98;10.27;;;0.90;99.90;;;;;;5030546;28;20045;-79
2022/01/30 00:13:19;;;;;;;20.70;10.02;;;1.10;99.90;;;;;;5031475;28;20108;-79
2022/01/30 00:15:52;;;;;;;24.33;10.20;;;1.20;99.90;;;;;;5029733;28;20044;-79
2022/01/30 00:21:14;;;;;;;22.05;9.80;;;1.30;99.90;;;;;;5029470;28;20060;-79
2022/01/30 00:23:47;;;;;;;20.38;8.85;;;1.40;99.90;;;;;;5029484;28;20039;-79
2022/01/30 00:26:15;;;;;;;20.52;9.68;;;1.40;99.90;;;;;;5027857;28;20031;-79
2022/01/30 00:28:41;;;;;;;17.63;7.78;;;1.40;99.90;;;;;;5032773;28;20014;-80
2022/01/30 00:31:08;;;;;;;18.60;8.57;;;1.20;99.90;;;;;;5030442;28;20033;-79
2022/01/30 00:33:34;;;;;;;22.95;9.13;;;1.00;99.90;;;;;;5030288;28;20068;-79
2022/01/30 00:36:00;;;;;;;20.00;8.38;;;1.10;99.90;;;;;;5036818;28;20025;-80
2022/01/30 00:38:26;;;;;;;19.65;7.75;;;1.00;99.90;;;;;;5029003;28;20033;-79
2022/01/30 00:40:53;;;;;;;17.00;7.45;;;1.00;99.90;;;;;;5029792;28;20057;-79
2022/01/30 00:43:20;;;;;;;15.40;8.30;;;1.00;99.90;;;;;;5032092;28;20021;-79
2022/01/30 00:45:46;;;;;;;18.55;7.68;;;1.10;99.90;;;;;;5032043;28;20049;-80
2022/01/30 00:48:12;;;;;;;14.07;7.38;;;1.20;99.90;;;;;;5032354;28;20049;-79
2022/01/30 00:50:39;;;;;;;17.83;8.48;;;1.20;99.90;;;;;;5029361;28;20060;-80
2022/01/30 00:53:06;;;;;;;15.05;7.78;;;1.30;99.90;;;;;;5030285;28;20034;-80
2022/01/30 00:55:32;;;;;;;14.52;7.20;;;1.20;99.90;;;;;;5031983;28;20077;-80
2022/01/30 00:57:59;;;;;;;14.98;7.45;;;1.30;99.90;;;;;;5027855;28;20035;-80
2022/01/30 01:00:26;;;;;;;16.08;7.85;;;1.40;99.90;;;;;;5034205;28;20042;-79
2022/01/30 01:02:52;;;;;;;15.23;7.20;;;1.30;99.90;;;;;;5033313;28;20018;-79
2022/01/30 01:05:18;;;;;;;14.43;7.38;;;1.10;99.90;;;;;;5026296;28;20037;-80
2022/01/30 01:07:49;;;;;;;14.23;6.72;;;1.10;99.90;;;;;;5029519;28;20025;-77
2022/01/30 01:26:23;;;;;;;15.80;7.43;;;1.10;99.90;;;;;;5041199;28;20513;-79
2022/01/30 01:28:49;;;;;;;15.68;7.95;;;1.10;99.90;;;;;;5043191;28;20025;-79
2022/01/30 01:31:16;;;;;;;15.77;7.60;;;0.90;99.90;;;;;;5032512;28;20037;-79
2022/01/30 01:36:27;;;;;;;16.00;7.10;;;0.60;99.90;;;;;;5036299;28;20055;-79
2022/01/30 01:38:52;;;;;;;15.48;7.18;;;0.80;99.90;;;;;;5042856;28;20029;-79
2022/01/30 01:41:21;;;;;;;17.83;7.80;;;0.90;99.90;;;;;;5042084;28;20518;-79
2022/01/30 01:43:49;;;;;;;15.77;6.70;;;1.00;99.90;;;;;;5045731;28;20029;-79
2022/01/30 01:46:25;;;;;;;14.95;7.18;;;1.10;99.90;;;;;;5044156;28;20155;-79
2022/01/30 01:48:53;;;;;;;20.48;7.93;;;1.10;99.90;;;;;;5031582;28;20037;-79
2022/01/30 01:51:30;;;;;;;18.58;8.23;;;0.80;99.90;;;;;;5013265;28;20104;-79
2022/01/30 01:53:57;;;;;;;14.40;6.78;;;0.90;99.90;;;;;;5030165;28;20510;-79
2022/01/30 01:56:25;;;;;;;16.10;7.43;;;0.90;99.90;;;;;;5030168;28;20032;-79
2022/01/30 01:58:51;;;;;;;16.25;7.18;;;1.00;99.90;;;;;;5044949;28;20024;-79
2022/01/30 02:01:17;;;;;;;13.35;6.40;;;1.10;99.90;;;;;;5037368;28;20041;-79
2022/01/30 02:03:44;;;;;;;14.98;7.10;;;0.90;99.90;;;;;;5024967;28;20037;-79
2022/01/30 02:06:14;;;;;;;15.23;6.90;;;0.90;99.90;;;;;;5020752;28;20017;-80
2022/01/30 02:09:05;;;;;;;15.15;7.20;;;0.80;99.90;;;;;;5028087;28;20060;-79
2022/01/30 02:11:37;;;;;;;19.73;8.60;;;0.60;99.90;;;;;;5028451;28;20028;-79
2022/01/30 02:24:55;;;;;;;16.83;7.80;;;0.80;99.90;;;;;;5028245;28;20087;-80
2022/01/30 02:27:24;;;;;;;;;;;0.90;99.90;;;;;;5030113;28;20120;-79
2022/01/30 02:29:50;;;;;;;16.58;6.82;;;0.90;99.90;;;;;;5026703;28;19909;-79
2022/01/30 02:32:16;;;;;;;17.45;8.88;;;0.70;99.90;;;;;;5027868;28;20791;-80
2022/01/30 02:34:42;;;;;;;17.75;8.57;;;0.50;99.90;;;;;;5028944;28;20083;-79
2022/01/30 02:37:08;;;;;;;21.80;8.88;;;0.40;99.90;;;;;;5029357;28;20022;-79
2022/01/30 02:39:34;;;;;;;19.30;8.88;;;0.40;99.90;;;;;;5032290;28;20032;-79
2022/01/30 02:42:00;;;;;;;17.23;7.55;;;0.50;99.90;;;;;;5032853;28;20037;-79
2022/01/30 02:44:40;;;;;;;18.77;8.52;;;0.50;99.90;;;;;;5030739;28;20447;-79
2022/01/30 02:47:21;;;;;;;15.15;7.60;;;0.60;99.90;;;;;;5027657;28;20522;-79
2022/01/30 02:50:10;;;;;;;18.30;7.03;;;0.60;99.90;;;;;;5028296;28;20565;-79
2022/01/30 02:52:35;;;;;;;12.35;6.07;;;0.70;99.90;;;;;;5029785;28;20056;-79
2022/01/30 02:55:01;;;;;;;15.48;7.55;;;0.50;99.90;;;;;;5027466;28;20037;-78
2022/01/30 02:57:26;;;;;;;14.10;6.80;;;0.60;99.90;;;;;;5030470;28;20025;-79
2022/01/30 02:59:52;;;;;;;15.43;7.18;;;0.70;99.90;;;;;;5036112;28;20048;-78
2022/01/30 03:02:18;;;;;;;18.70;7.85;;;0.60;99.90;;;;;;5034359;28;20471;-79
2022/01/30 03:04:43;;;;;;;14.00;6.80;;;0.40;99.90;;;;;;5023400;28;20030;-78
2022/01/30 03:07:09;;;;;;;14.90;7.70;;;0.30;99.90;;;;;;5028928;28;20590;-79
2022/01/30 03:09:36;;;;;;;18.27;8.70;;;0.00;99.90;;;;;;5031169;28;20021;-78
2022/01/30 03:12:02;;;;;;;16.42;7.93;;;-0.10;99.90;;;;;;5026366;28;20026;-78
2022/01/30 03:14:28;;;;;;;15.15;6.68;;;0.10;99.90;;;;;;5029729;28;20071;-79
2022/01/30 03:16:54;;;;;;;16.20;7.85;;;0.00;99.90;;;;;;5037309;28;20029;-79
2022/01/30 03:19:20;;;;;;;14.65;7.03;;;0.10;99.90;;;;;;5033828;28;20037;-79
2022/01/30 03:21:46;;;;;;;12.90;6.88;;;0.20;99.90;;;;;;5032554;28;20029;-79
2022/01/30 03:24:12;;;;;;;11.82;5.53;;;0.30;99.90;;;;;;5031131;28;20505;-79
2022/01/30 03:26:40;;;;;;;12.30;6.00;;;0.20;99.90;;;;;;5031818;28;20033;-79
2022/01/30 03:29:07;;;;;;;15.77;7.30;;;0.10;99.90;;;;;;5030573;28;20025;-79
2022/01/30 03:31:35;;;;;;;13.85;6.38;;;0.10;99.90;;;;;;5032653;28;20013;-79
2022/01/30 03:34:01;;;;;;;12.57;6.25;;;0.10;99.90;;;;;;5030645;28;20041;-79
2022/01/30 03:36:27;;;;;;;11.65;5.95;;;0.20;99.90;;;;;;5028853;28;20525;-79
2022/01/30 03:38:52;;;;;;;11.35;5.53;;;0.40;99.90;;;;;;5034799;28;20345;-79
2022/01/30 03:41:18;;;;;;;12.93;5.95;;;0.40;99.90;;;;;;5030531;28;20498;-79
2022/01/30 03:43:44;;;;;;;11.48;5.20;;;0.50;99.90;;;;;;5029742;28;20099;-79
2022/01/30 03:46:09;;;;;;;11.40;5.15;;;0.60;99.90;;;;;;5031690;28;20076;-79
2022/01/30 03:48:36;;;;;;;12.50;5.75;;;0.60;99.90;;;;;;5030140;28;20053;-79
2022/01/30 03:51:02;;;;;;;8.82;4.50;;;0.60;99.90;;;;;;5030129;28;20044;-79
2022/01/30 03:53:31;;;;;;;10.80;5.38;;;0.60;99.90;;;;;;5030738;28;20021;-79
2022/01/30 03:55:56;;;;;;;12.32;5.05;;;0.60;99.90;;;;;;5029941;28;20044;-79
2022/01/30 03:58:22;;;;;;;11.40;4.97;;;0.60;99.90;;;;;;5031320;28;20033;-79
2022/01/30 04:00:48;;;;;;;8.70;4.45;;;0.40;99.90;;;;;;5028667;28;20513;-78
2022/01/30 04:03:14;;;;;;;11.70;5.70;;;0.30;99.90;;;;;;5033293;28;20570;-79
2022/01/30 04:05:40;;;;;;;11.93;5.18;;;0.30;99.90;;;;;;5029953;28;20490;-78
2022/01/30 04:08:06;;;;;;;9.57;4.63;;;0.40;99.90;;;;;;5029977;28;20079;-79
2022/01/30 04:10:32;;;;;;;8.88;4.07;;;0.50;99.90;;;;;;5031792;28;20030;-78
2022/01/30 04:12:58;;;;;;;10.35;4.93;;;0.40;99.90;;;;;;5029474;28;20036;-78
2022/01/30 04:15:24;;;;;;;9.75;4.65;;;0.40;99.90;;;;;;5035443;28;20497;-79
2022/01/30 04:17:50;;;;;;;9.55;5.10;;;0.50;99.90;;;;;;5033288;28;20021;-78
2022/01/30 04:20:16;;;;;;;10.30;4.65;;;0.40;99.90;;;;;;5028296;28;20029;-78
2022/01/30 04:22:41;;;;;;;10.23;4.35;;;0.50;99.90;;;;;;5030495;28;20530;-78
2022/01/30 04:25:07;;;;;;;9.48;5.05;;;0.60;99.90;;;;;;5036197;28;20112;-78
2022/01/30 04:27:33;;;;;;;8.18;4.60;;;0.70;99.90;;;;;;5034080;28;20540;-78
2022/01/30 04:29:59;;;;;;;8.95;4.60;;;0.70;99.90;;;;;;5029404;28;20095;-79
2022/01/30 04:32:27;;;;;;;11.63;4.68;;;0.60;99.90;;;;;;5036292;28;20100;-78
2022/01/30 04:34:57;;;;;;;9.70;4.45;;;0.60;99.90;;;;;;5034436;28;20112;-79
2022/01/30 05:06:56;;;;;;;13.57;6.28;;;0.00;99.90;;;;;;5050055;28;20025;-79
2022/01/30 05:09:22;;;;;;;13.18;6.28;;;0.10;99.90;;;;;;5041738;28;20056;-79
2022/01/30 05:11:47;;;;;;;13.98;6.15;;;0.10;99.90;;;;;;5041462;28;20543;-79
2022/01/30 05:14:14;;;;;;;13.32;5.88;;;0.20;99.90;;;;;;5045835;28;20107;-79
2022/01/30 05:16:40;;;;;;;12.57;6.20;;;0.30;99.90;;;;;;5031176;28;20088;-79
2022/01/30 05:19:06;;;;;;;12.10;5.30;;;0.30;99.90;;;;;;5029189;28;20026;-79
2022/01/30 05:21:32;;;;;;;11.63;5.10;;;0.40;99.90;;;;;;5028859;28;20576;-79
2022/01/30 05:23:58;;;;;;;10.68;5.38;;;0.40;99.90;;;;;;5028276;28;20029;-79
2022/01/30 05:26:26;;;;;;;9.80;5.18;;;0.40;99.90;;;;;;5038125;28;20016;-79
2022/01/30 05:28:52;;;;;;;12.10;5.80;;;0.40;99.90;;;;;;5029083;28;20052;-79
2022/01/30 05:31:18;;;;;;;11.50;5.97;;;0.50;99.90;;;;;;5032360;28;20025;-79
2022/01/30 05:33:45;;;;;;;9.75;4.60;;;0.40;99.90;;;;;;5030283;28;20383;-79
2022/01/30 05:36:11;;;;;;;11.13;5.30;;;0.40;99.90;;;;;;5028357;28;20029;-79
2022/01/30 05:38:37;;;;;;;11.63;4.82;;;0.50;99.90;;;;;;5028104;28;20536;-79
2022/01/30 05:41:03;;;;;;;12.85;5.05;;;0.50;99.90;;;;;;5028113;28;20100;-79
2022/01/30 05:43:32;;;;;;;10.90;5.38;;;0.60;99.90;;;;;;5030314;28;20101;-79
2022/01/30 05:46:13;;;;;;;10.10;4.43;;;0.60;99.90;;;;;;5027927;28;20037;-79
2022/01/30 05:48:40;;;;;;;10.57;5.03;;;0.60;99.90;;;;;;5028498;28;20045;-79
2022/01/30 05:51:05;;;;;;;12.23;5.20;;;0.40;99.90;;;;;;5033814;28;20029;-79
2022/01/30 05:53:32;;;;;;;10.70;5.05;;;0.50;99.90;;;;;;5032034;28;20524;-79
2022/01/30 05:55:58;;;;;;;8.73;4.05;;;0.40;99.90;;;;;;5026634;28;20030;-79
2022/01/30 05:58:23;;;;;;;10.85;5.18;;;0.40;99.90;;;;;;5028581;28;20033;-79
2022/01/30 06:00:49;;;;;;;9.18;4.53;;;0.60;99.90;;;;;;5028137;28;20029;-79
2022/01/30 06:03:15;;;;;;;10.70;5.47;;;0.70;99.90;;;;;;5027778;28;20460;-79
2022/01/30 06:05:41;;;;;;;8.98;4.38;;;0.40;99.90;;;;;;5026219;28;20056;-79
2022/01/30 06:08:38;;;;;;;7.68;4.20;;;0.50;99.90;;;;;;5026915;28;20063;-79
2022/01/30 06:11:01;;;;;;;9.15;5.00;;;0.40;99.90;;;;;;5026522;28;20029;-79
2022/01/30 06:13:28;;;;;;;8.27;4.47;;;0.50;99.90;;;;;;5031729;28;20392;-79
2022/01/30 06:15:54;;;;;;;7.85;3.88;;;0.50;99.90;;;;;;5029352;28;20025;-79
2022/01/30 06:18:19;;;;;;;6.80;3.65;;;0.60;99.90;;;;;;5026401;28;20517;-79
2022/01/30 06:20:45;;;;;;;8.38;4.22;;;0.50;99.90;;;;;;5027874;28;20486;-79
2022/01/30 06:23:11;;;;;;;6.85;3.85;;;0.60;99.90;;;;;;5027695;28;20080;-79
2022/01/30 06:25:36;;;;;;;8.23;3.95;;;0.70;99.90;;;;;;5037546;28;20513;-79
2022/01/30 06:28:02;;;;;;;9.35;4.55;;;0.70;99.90;;;;;;5028663;28;20060;-79
2022/01/30 06:30:28;;;;;;;7.88;3.70;;;0.70;99.90;;;;;;5033061;28;20037;-79
2022/01/30 06:32:54;;;;;;;7.32;3.85;;;0.70;99.90;;;;;;5029738;28;20037;-79
2022/01/30 06:35:19;;;;;;;8.27;3.88;;;0.70;99.90;;;;;;5031955;28;20030;-79
2022/01/30 06:37:45;;;;;;;8.48;4.20;;;0.60;99.90;;;;;;5031592;28;20453;-79
2022/01/30 06:40:11;;;;;;;9.40;3.83;;;0.70;99.90;;;;;;5033114;28;20021;-78
2022/01/30 06:42:37;;;;;;;8.45;3.85;;;0.60;99.90;;;;;;5031578;28;20052;-79
2022/01/30 06:45:03;;;;;;;9.60;4.60;;;0.30;99.90;;;;;;5031465;28;20490;-79
2022/01/30 06:47:29;;;;;;;9.52;4.20;;;0.10;99.90;;;;;;5030442;28;20477;-79
2022/01/30 06:49:55;;;;;;;6.57;3.80;;;0.10;99.90;;;;;;5037504;28;20029;-79
2022/01/30 06:52:21;;;;;;;9.30;4.25;;;0.20;99.90;;;;;;5032554;28;20025;-79
2022/01/30 06:54:46;;;;;;;9.38;4.07;;;0.30;99.90;;;;;;5032842;28;20032;-79
2022/01/30 06:57:12;;;;;;;9.23;4.22;;;0.10;99.90;;;;;;5031046;28;20073;-79
2022/01/30 06:59:38;;;;;;;8.82;4.20;;;0.30;99.90;;;;;;5030350;28;20494;-79
2022/01/30 07:02:06;;;;;;;7.75;3.78;;;0.20;99.90;;;;;;5031436;28;20029;-79
2022/01/30 07:04:31;;;;;;;6.47;3.78;;;0.50;99.90;;;;;;5029327;28;20030;-79
2022/01/30 07:06:57;;;;;;;7.90;4.13;;;0.50;99.90;;;;;;5029712;28;20144;-78
2022/01/30 07:09:23;;;;;;;7.63;3.70;;;0.60;99.90;;;;;;5036969;28;20029;-79
2022/01/30 07:11:49;;;;;;;9.98;4.15;;;0.40;99.90;;;;;;5030870;28;20088;-78
2022/01/30 07:14:14;;;;;;;9.07;3.90;;;0.30;99.90;;;;;;5031239;28;20046;-79
2022/01/30 07:16:40;;;;;;;9.13;4.95;;;0.30;99.90;;;;;;5032815;28;20041;-78
2022/01/30 07:19:06;;;;;;;8.15;4.05;;;0.20;99.90;;;;;;5029636;28;20407;-79
2022/01/30 07:21:31;;;;;;;9.45;4.03;;;0.00;99.90;;;;;;5030865;28;20027;-79
2022/01/30 07:23:57;;;;;;;8.48;4.45;;;0.20;99.90;;;;;;5029371;28;20758;-79
2022/01/30 07:26:23;;;;;;;6.90;3.63;;;0.30;99.90;;;;;;5031037;28;20041;-78
2022/01/30 07:28:48;;;;;;;6.57;3.35;;;0.40;99.90;;;;;;5036746;28;20025;-79
2022/01/30 07:31:14;;;;;;;7.95;3.38;;;0.30;99.90;;;;;;5032228;28;20033;-79
2022/01/30 07:33:40;;;;;;;7.68;4.00;;;0.30;99.90;;;;;;5033731;28;20068;-79
2022/01/30 07:36:07;;;;;;;8.18;3.78;;;0.10;99.90;;;;;;5030666;28;20486;-79
2022/01/30 07:38:35;;;;;;;7.45;3.63;;;0.10;99.90;;;;;;5031061;28;20060;-79
2022/01/30 07:41:01;;;;;;;8.02;3.55;;;0.10;99.90;;;;;;5029012;28;20026;-79
2022/01/30 07:43:26;;;;;;;8.70;4.45;;;0.00;99.90;;;;;;5032031;28;20026;-79
2022/01/30 07:45:52;;;;;;;7.03;3.38;;;-0.10;99.90;;;;;;5030027;28;20537;-79
2022/01/30 07:48:18;;;;;;;7.32;3.85;;;0.10;99.90;;;;;;5028665;28;20422;-78
2022/01/30 07:50:44;;;;;;;7.45;4.25;;;0.20;99.90;;;;;;5032614;28;20072;-78
2022/01/30 07:53:10;;;;;;;8.48;3.83;;;0.10;99.90;;;;;;5030212;28;20061;-79
2022/01/30 07:55:35;;;;;;;8.18;3.65;;;0.30;99.90;;;;;;5031895;28;20520;-79
2022/01/30 07:58:01;;;;;;;6.90;3.85;;;0.30;99.90;;;;;;5029781;28;20060;-78
2022/01/30 08:00:27;;;;;;;7.50;3.65;;;0.50;99.90;;;;;;5030460;28;20029;-79
2022/01/30 08:02:52;;;;;;;6.30;3.53;;;0.50;99.90;;;;;;5037742;28;20049;-79
2022/01/30 08:05:18;;;;;;;6.28;3.35;;;0.60;99.90;;;;;;5025932;28;20132;-79
2022/01/30 08:07:44;;;;;;;8.98;4.45;;;0.60;99.90;;;;;;5034200;28;20024;-78
2022/01/30 08:10:09;;;;;;;8.68;3.63;;;0.50;99.90;;;;;;5030640;28;20479;-78
2022/01/30 08:12:37;;;;;;;7.25;3.28;;;0.20;99.90;;;;;;5029612;28;20628;-79
2022/01/30 08:15:04;;;;;;;5.13;2.97;;;0.30;99.90;;;;;;5028458;28;20044;-79
2022/01/30 08:17:32;;;;;;;8.55;4.47;;;0.30;99.90;;;;;;5029855;28;20025;-79
2022/01/30 08:19:58;;;;;;;8.70;4.07;;;0.30;99.90;;;;;;5029848;28;20021;-78
2022/01/30 08:22:28;;;;;;;6.00;3.40;;;0.20;99.90;;;;;;5031305;28;20026;-78
2022/01/30 08:24:53;;;;;;;8.75;3.53;;;0.40;99.90;;;;;;5028333;28;20500;-78
2022/01/30 08:27:19;;;;;;;7.70;3.67;;;0.40;99.90;;;;;;5029685;28;20497;-78
2022/01/30 08:29:44;;;;;;;7.75;3.55;;;0.50;99.90;;;;;;5034008;28;20479;-78
2022/01/30 08:32:11;;;;;;;8.43;3.70;;;0.50;99.90;;;;;;5032162;28;20418;-78
2022/01/30 08:34:38;;;;;;;7.05;3.00;;;0.50;99.90;;;;;;5031237;28;20029;-78
2022/01/30 08:37:05;;;;;;;7.45;3.42;;;0.50;99.90;;;;;;5028790;28;21043;-78
2022/01/30 08:39:30;;;;;;;7.55;3.53;;;0.30;99.90;;;;;;5029631;28;20112;-78
2022/01/30 08:41:56;;;;;;;5.10;3.17;;;0.40;99.90;;;;;;5029160;28;20129;-79
2022/01/30 08:44:22;;;;;;;5.10;3.08;;;0.50;99.90;;;;;;5029085;28;20479;-78
2022/01/30 08:46:47;;;;;;;8.95;3.75;;;0.70;99.90;;;;;;5035293;28;20041;-78
2022/01/30 08:49:14;;;;;;;8.93;3.22;;;0.80;99.90;;;;;;5030585;28;20026;-78
2022/01/30 08:51:40;;;;;;;5.38;2.90;;;0.80;99.90;;;;;;5032621;28;20087;-78
2022/01/30 08:54:06;;;;;;;7.85;3.38;;;0.90;99.90;;;;;;5028228;28;20417;-78
2022/01/30 08:56:31;;;;;;;6.50;2.97;;;0.90;99.90;;;;;;5029023;28;20018;-78
2022/01/30 08:58:58;;;;;;;7.65;3.40;;;0.90;99.90;;;;;;5027984;28;20032;-78
2022/01/30 09:01:24;;;;;;;6.82;3.30;;;1.00;99.90;;;;;;5029174;28;20029;-78
2022/01/30 09:03:50;;;;;;;6.45;3.08;;;0.90;99.90;;;;;;5029138;28;20168;-78
2022/01/30 09:06:17;;;;;;;6.97;4.07;;;0.90;99.90;;;;;;5028728;28;20025;-78
2022/01/30 09:08:42;;;;;;;5.82;2.53;;;1.00;99.90;;;;;;5032142;28;20025;-78
2022/01/30 09:11:08;;;;;;;5.88;2.72;;;1.10;99.90;;;;;;5029232;28;20029;-78
2022/01/30 09:13:34;;;;;;;5.43;2.75;;;0.90;99.90;;;;;;5030969;28;20025;-78
2022/01/30 09:16:01;;;;;;;4.47;2.28;;;1.00;99.90;;;;;;5028857;28;20021;-78
2022/01/30 09:18:27;;;;;;;5.57;3.05;;;1.00;99.90;;;;;;5028619;28;20059;-78
2022/01/30 09:20:54;;;;;;;5.55;2.80;;;1.00;99.90;;;;;;5028359;28;20013;-78
2022/01/30 09:23:20;;;;;;;4.75;3.00;;;1.00;99.90;;;;;;5035803;28;20052;-78
2022/01/30 09:25:47;;;;;;;5.13;3.30;;;1.00;99.90;;;;;;5029277;28;20031;-78
2022/01/30 09:28:13;;;;;;;6.13;3.40;;;1.10;99.90;;;;;;5028934;28;20057;-78
2022/01/30 09:30:39;;;;;;;10.15;4.30;;;0.90;99.90;;;;;;5029684;28;20102;-78
2022/01/30 09:33:05;;;;;;;8.07;3.53;;;0.80;99.90;;;;;;5029572;28;20083;-78
2022/01/30 09:35:31;;;;;;;8.02;3.58;;;1.00;99.90;;;;;;5028542;28;20041;-78
2022/01/30 09:37:57;;;;;;;7.50;3.72;;;1.10;99.90;;;;;;5028327;28;20038;-78
2022/01/30 09:40:23;;;;;;;6.72;3.70;;;1.10;99.90;;;;;;5030209;28;20529;-78
2022/01/30 09:42:50;;;;;;;8.25;3.97;;;1.10;99.90;;;;;;5028376;28;20021;-78
2022/01/30 09:45:18;;;;;;;6.80;3.55;;;0.90;99.90;;;;;;5034452;28;20038;-78
2022/01/30 09:47:45;;;;;;;5.47;3.17;;;0.90;99.90;;;;;;5026925;28;20043;-78
2022/01/30 09:50:11;;;;;;;6.60;3.60;;;1.10;99.90;;;;;;5028447;28;20021;-78
2022/01/30 09:52:37;;;;;;;5.63;3.28;;;1.20;99.90;;;;;;5028858;28;20295;-78
2022/01/30 09:55:05;;;;;;;5.78;2.78;;;1.20;99.90;;;;;;5028540;28;20108;-78
2022/01/30 09:57:31;;;;;;;5.18;3.17;;;1.10;99.90;;;;;;5028380;28;20512;-78
2022/01/30 09:59:57;;;;;;;5.85;2.58;;;1.20;99.90;;;;;;5026543;28;20029;-78
2022/01/30 10:02:26;;;;;;;4.88;3.35;;;1.20;99.90;;;;;;5028268;28;20028;-78
2022/01/30 10:04:52;;;;;;;4.05;2.90;;;1.40;99.90;;;;;;5020310;28;20105;-78
2022/01/30 10:07:21;;;;;;;3.05;2.25;;;1.30;99.90;;;;;;5034026;28;20091;-78
2022/01/30 10:09:49;;;;;;;5.65;2.78;;;1.40;99.90;;;;;;5035370;28;20037;-78
2022/01/30 10:12:23;;;;;;;7.60;3.45;;;1.30;99.90;;;;;;5033490;28;20129;-78
2022/01/30 10:14:57;;;;;;;3.75;2.50;;;1.30;99.90;;;;;;5032050;28;20056;-78
2022/01/30 10:17:27;;;;;;;4.45;2.60;;;1.40;99.90;;;;;;5030772;28;20379;-78
2022/01/30 10:20:03;;;;;;;5.20;2.67;;;1.50;99.90;;;;;;5028523;28;20116;-78
2022/01/30 10:22:29;;;;;;;5.43;3.05;;;1.60;99.90;;;;;;5033401;28;20025;-78
2022/01/30 10:24:56;;;;;;;6.18;3.10;;;1.50;99.90;;;;;;5031993;28;20026;-78
2022/01/30 10:27:27;;;;;;;5.20;3.00;;;1.60;99.90;;;;;;5030912;28;20415;-78
2022/01/30 10:30:05;;;;;;;6.00;2.92;;;1.60;99.90;;;;;;5034778;28;20021;-78
2022/01/30 10:32:31;;;;;;;4.60;2.65;;;1.60;99.90;;;;;;5017993;28;20059;-78
2022/01/30 10:35:03;;;;;;;4.80;2.95;;;1.60;99.90;;;;;;5030868;28;20119;-78
2022/01/30 10:37:29;;;;;;;7.07;3.28;;;1.70;99.90;;;;;;5033049;28;20104;-78
2022/01/30 10:40:17;;;;;;;4.47;2.72;;;1.70;99.90;;;;;;5030215;28;20467;-78
2022/01/30 10:42:46;;;;;;;7.13;3.95;;;1.80;99.90;;;;;;5030070;28;20534;-78
2022/01/30 10:45:13;;;;;;;7.47;4.47;;;1.40;99.90;;;;;;5035321;28;20071;-78
2022/01/30 10:47:39;;;;;;;7.57;3.90;;;1.50;99.90;;;;;;5034759;28;20038;-78
2022/01/30 10:50:14;;;;;;;10.15;4.85;;;1.40;99.90;;;;;;5030316;28;20110;-78
2022/01/30 10:52:59;;;;;;;7.18;3.92;;;1.50;99.90;;;;;;5033242;28;20014;-78
2022/01/30 10:55:37;;;;;;;7.85;4.05;;;1.60;99.90;;;;;;5031483;28;20040;-78
2022/01/30 10:58:04;;;;;;;5.40;3.15;;;1.80;99.90;;;;;;5029603;28;20109;-78
2022/01/30 11:00:40;;;;;;;6.75;3.60;;;1.80;99.90;;;;;;5029747;28;20067;-78
2022/01/30 11:03:06;;;;;;;6.05;3.58;;;1.80;99.90;;;;;;5036005;28;20029;-78
2022/01/30 11:05:50;;;;;;;5.43;3.38;;;1.70;99.90;;;;;;5030083;28;20461;-78
2022/01/30 11:08:23;;;;;;;6.68;4.00;;;1.60;99.90;;;;;;5018588;28;20064;-78
2022/01/30 11:10:59;;;;;;;7.70;4.05;;;1.60;99.90;;;;;;5030402;28;20029;-78
2022/01/30 11:13:32;;;;;;;6.70;3.65;;;1.60;99.90;;;;;;5032855;28;20510;-78
2022/01/30 11:16:56;;;;;;;6.88;4.18;;;1.60;99.90;;;;;;5029592;28;20100;-78
2022/01/30 11:18:50;;;;;;;5.53;3.60;;;1.70;99.90;;;;;;5029906;28;20461;-78
2022/01/30 11:21:22;;;;;;;7.70;4.18;;;1.90;99.90;;;;;;5030623;28;20036;-78
2022/01/30 11:23:51;;;;;;;7.15;4.38;;;1.90;99.90;;;;;;5028957;28;20047;-78
2022/01/30 11:26:18;;;;;;;7.22;4.18;;;1.80;99.90;;;;;;5030505;28;20402;-78
2022/01/30 11:28:45;;;;;;;6.38;3.53;;;1.80;99.90;;;;;;5044907;28;20021;-78
2022/01/30 11:31:16;;;;;;;6.13;3.75;;;1.90;99.90;;;;;;5031328;28;20550;-78
2022/01/30 11:33:43;;;;;;;8.67;4.77;;;1.80;99.90;;;;;;5030434;28;20490;-78
2022/01/30 11:36:10;;;;;;;5.88;3.45;;;1.60;99.90;;;;;;5030414;28;20029;-78
2022/01/30 11:38:37;;;;;;;6.80;3.90;;;1.80;99.90;;;;;;5029119;28;20033;-77
2022/01/30 11:41:15;;;;;;;7.45;4.32;;;1.80;99.90;;;;;;5036319;28;20176;-78
2022/01/30 11:44:01;;;;;;;6.35;3.50;;;2.00;99.90;;;;;;5034824;28;20026;-78
2022/01/30 11:46:26;;;;;;;9.23;4.10;;;2.00;99.90;;;;;;5030731;28;20045;-78
2022/01/30 11:49:12;;;;;;;8.95;4.70;;;1.90;99.90;;;;;;5032350;28;20537;-78
2022/01/30 11:51:54;;;;;;;9.85;4.40;;;2.00;99.90;;;;;;5030033;28;20108;-78
2022/01/30 11:54:53;;;;;;;7.43;4.47;;;1.70;99.90;;;;;;5030048;28;20040;-78
2022/01/30 11:57:22;;;;;;;9.90;5.00;;;1.60;99.90;;;;;;5023251;28;20029;-78
2022/01/30 11:59:51;;;;;;;7.93;4.40;;;1.80;99.90;;;;;;5029818;28;20056;-78
2022/01/30 12:02:36;;;;;;;6.85;3.95;;;1.90;99.90;;;;;;5035307;28;20032;-78
2022/01/30 12:05:08;;;;;;;5.38;3.88;;;2.10;99.90;;;;;;5029932;28;20032;-78
2022/01/30 12:07:38;;;;;;;7.13;4.82;;;1.90;99.90;;;;;;5032299;28;20010;-78
2022/01/30 12:10:27;;;;;;;7.68;3.92;;;1.90;99.90;;;;;;5029644;28;20033;-78
2022/01/30 12:12:58;;;;;;;7.20;5.13;;;2.00;99.90;;;;;;5030643;28;20045;-78
2022/01/30 12:15:36;;;;;;;7.18;4.40;;;2.10;99.90;;;;;;5028195;28;20091;-78
2022/01/30 12:18:07;;;;;;;5.57;3.38;;;2.00;99.90;;;;;;5038295;28;20029;-78
2022/01/30 12:21:01;;;;;;;5.10;3.50;;;2.10;99.90;;;;;;5036365;28;20048;-78
2022/01/30 12:23:36;;;;;;;8.05;4.75;;;2.20;99.90;;;;;;5029789;28;20029;-78
2022/01/30 12:26:10;;;;;;;8.80;4.35;;;2.20;99.90;;;;;;5030773;28;20082;-78
2022/01/30 12:28:55;;;;;;;9.48;4.00;;;2.20;99.90;;;;;;5030620;28;20037;-78
2022/01/30 12:31:35;;;;;;;7.35;3.95;;;2.30;99.90;;;;;;5030791;28;20033;-78
2022/01/30 12:34:10;;;;;;;6.28;3.70;;;2.40;99.90;;;;;;5029155;28;20033;-78
2022/01/30 12:36:41;;;;;;;7.47;3.50;;;2.50;99.90;;;;;;5029137;28;20033;-78
2022/01/30 12:39:12;;;;;;;5.95;3.28;;;2.40;99.90;;;;;;5027409;28;20033;-78
2022/01/30 12:41:40;;;;;;;4.97;3.45;;;2.50;99.90;;;;;;5035406;28;20355;-78
2022/01/30 12:44:09;;;;;;;6.32;3.47;;;2.50;99.90;;;;;;5028440;28;20034;-78
2022/01/30 12:46:48;;;;;;;5.93;3.20;;;2.60;99.90;;;;;;5030825;28;20053;-78
2022/01/30 12:49:16;;;;;;;5.78;3.38;;;2.50;99.90;;;;;;5033076;28;20026;-78
2022/01/30 12:51:49;;;;;;;7.45;3.53;;;2.50;99.90;;;;;;5025300;28;20037;-78
2022/01/30 12:54:21;;;;;;;5.97;3.38;;;2.60;99.90;;;;;;5028960;28;20024;-78
2022/01/30 12:56:50;;;;;;;;;;;2.60;99.90;;;;;;5038171;28;20171;-78
2022/01/30 12:59:17;;;;;;;4.28;2.67;;;2.60;99.90;;;;;;5021020;28;19978;-78
2022/01/30 13:01:46;;;;;;;5.50;3.33;;;2.70;99.90;;;;;;5036326;28;20025;-78
2022/01/30 13:04:23;;;;;;;5.97;3.67;;;2.60;99.90;;;;;;5022903;28;20121;-78
2022/01/30 13:06:51;;;;;;;5.78;3.30;;;2.50;99.90;;;;;;5025804;28;20116;-78
2022/01/30 13:09:28;;;;;;;8.23;3.90;;;2.30;99.90;;;;;;5028352;28;20044;-78
2022/01/30 13:11:59;;;;;;;8.27;4.18;;;2.40;99.90;;;;;;5018096;28;20075;-78
2022/01/30 13:14:37;;;;;;;6.28;3.30;;;2.40;99.90;;;;;;5027622;28;20033;-78
2022/01/30 13:17:04;;;;;;;5.75;3.47;;;2.60;99.90;;;;;;5028963;28;20026;-78
2022/01/30 13:19:42;;;;;;;9.15;4.38;;;2.60;99.90;;;;;;5032398;28;20029;-78
2022/01/30 13:22:25;;;;;;;6.30;3.60;;;2.70;99.90;;;;;;5029081;28;20120;-78
2022/01/30 13:24:57;;;;;;;7.88;3.88;;;2.70;99.90;;;;;;5026096;28;20096;-78
2022/01/30 13:27:25;;;;;;;4.97;3.38;;;2.70;99.90;;;;;;5027129;28;20048;-79
2022/01/30 13:29:54;;;;;;;4.35;2.78;;;2.80;99.90;;;;;;5028349;28;20033;-79
2022/01/30 13:32:22;;;;;;;5.00;3.45;;;2.80;99.90;;;;;;5028481;28;20445;-78
2022/01/30 13:34:48;;;;;;;5.70;3.75;;;2.90;99.90;;;;;;5029299;28;20030;-78
2022/01/30 13:37:19;;;;;;;7.32;3.78;;;2.80;99.90;;;;;;5030486;28;20379;-78
2022/01/30 13:48:13;;;;;;;8.30;4.18;;;2.70;99.90;;;;;;5017212;28;20041;-79
2022/01/30 13:50:54;;;;;;;5.95;3.47;;;2.80;99.90;;;;;;5028290;28;20621;-78
2022/01/30 13:53:19;;;;;;;7.47;4.43;;;2.80;99.90;;;;;;5027613;28;20037;-78
2022/01/30 13:55:57;;;;;;;8.10;4.95;;;2.70;99.90;;;;;;5026089;28;20112;-78
2022/01/30 13:58:26;;;;;;;9.60;5.18;;;2.60;99.90;;;;;;5031815;28;20056;-79
2022/01/30 14:00:52;;;;;;;9.52;5.20;;;2.60;99.90;;;;;;5029289;28;20036;-78
2022/01/30 14:03:38;;;;;;;7.13;4.32;;;2.60;99.90;;;;;;5027785;28;20032;-78
2022/01/30 14:06:18;;;;;;;6.35;4.10;;;2.80;99.90;;;;;;5020235;28;20026;-78
2022/01/30 14:08:58;;;;;;;8.77;4.65;;;2.80;99.90;;;;;;5028040;28;20526;-78
2022/01/30 14:11:35;;;;;;;4.82;3.25;;;2.90;99.90;;;;;;5028587;28;20029;-78